createdAt,value
2017-06-03T00:00:20.051Z,20.03
2017-06-03T00:01:00.537Z,20.03
2017-06-03T00:01:41.035Z,20.01
2017-06-03T00:02:21.533Z,19.98
2017-06-03T00:03:02.020Z,20.05
2017-06-03T00:03:42.513Z,19.98
2017-06-03T00:04:22.988Z,19.96
2017-06-03T00:05:03.493Z,19.83
2017-06-03T00:05:43.989Z,19.71
2017-06-03T00:06:24.481Z,19.74
2017-06-03T00:07:04.972Z,19.63
2017-06-03T00:07:45.465Z,19.54
2017-06-03T00:08:25.971Z,19.48
2017-06-03T00:09:06.465Z,19.55
2017-06-03T00:09:46.961Z,19.44
2017-06-03T00:10:27.461Z,19.47
2017-06-03T00:11:07.921Z,19.4
2017-06-03T00:11:48.412Z,19.41
2017-06-03T00:12:28.910Z,19.36
2017-06-03T00:13:09.403Z,19.37
2017-06-03T00:13:49.899Z,19.33
2017-06-03T00:14:30.393Z,19.28
2017-06-03T00:15:10.879Z,19.21
2017-06-03T00:15:51.373Z,19.19
2017-06-03T00:16:31.873Z,19.26
2017-06-03T00:17:12.373Z,19.28
2017-06-03T00:17:52.855Z,19.32
2017-06-03T00:18:33.344Z,19.29
2017-06-03T00:19:13.834Z,19.39
2017-06-03T00:19:54.942Z,19.37
2017-06-03T00:20:35.422Z,19.31
2017-06-03T00:21:15.912Z,19.26
2017-06-03T00:21:56.401Z,19.21
2017-06-03T00:22:36.893Z,19.18
2017-06-03T00:23:17.386Z,19.21
2017-06-03T00:23:57.876Z,19.23
2017-06-03T00:24:38.361Z,19.23
2017-06-03T00:25:18.858Z,19.18
2017-06-03T00:25:59.341Z,19.16
2017-06-03T00:26:39.831Z,19.13
2017-06-03T00:27:20.340Z,19.14
2017-06-03T00:28:00.818Z,19.21
2017-06-03T00:28:41.308Z,19.25
2017-06-03T00:30:33.917Z,19.25
2017-06-03T00:31:14.292Z,19.21
2017-06-03T00:31:54.792Z,19.19
2017-06-03T00:32:35.291Z,19.18
2017-06-03T00:33:15.766Z,19.13
2017-06-03T00:33:56.255Z,19.04
2017-06-03T00:34:36.776Z,19.08
2017-06-03T00:35:17.234Z,19.08
2017-06-03T00:35:57.701Z,19
2017-06-03T00:36:38.184Z,19.02
2017-06-03T00:37:18.688Z,18.98
2017-06-03T00:37:59.185Z,18.98
2017-06-03T00:38:39.659Z,18.94
2017-06-03T00:39:20.197Z,18.82
2017-06-03T00:40:00.645Z,18.81
2017-06-03T00:40:41.123Z,18.92
2017-06-03T00:41:21.617Z,18.82
2017-06-03T00:42:02.119Z,18.81
2017-06-03T00:42:42.618Z,18.8
2017-06-03T00:43:23.089Z,18.78
2017-06-03T00:44:03.562Z,18.82
2017-06-03T00:44:44.056Z,18.8
2017-06-03T00:45:24.537Z,18.75
2017-06-03T00:46:05.026Z,18.78
2017-06-03T00:46:45.544Z,18.72
2017-06-03T00:47:25.997Z,18.67
2017-06-03T00:48:06.480Z,18.76
2017-06-03T00:48:46.976Z,18.72
2017-06-03T00:49:27.488Z,18.76
2017-06-03T00:50:07.984Z,18.82
2017-06-03T00:50:48.496Z,18.9
2017-06-03T00:51:28.964Z,18.81
2017-06-03T00:52:09.464Z,18.84
2017-06-03T00:52:49.944Z,18.82
2017-06-03T00:53:30.433Z,18.91
2017-06-03T00:54:11.649Z,18.88
2017-06-03T00:54:52.154Z,18.84
2017-06-03T00:55:32.634Z,18.82
2017-06-03T00:56:13.148Z,18.85
2017-06-03T00:56:53.641Z,18.81
2017-06-03T00:57:34.134Z,18.81
2017-06-03T00:58:14.618Z,18.78
2017-06-03T00:58:55.108Z,18.72
2017-06-03T00:59:35.599Z,18.8
2017-06-03T01:00:16.092Z,18.81
2017-06-03T01:00:56.567Z,18.82
2017-06-03T01:01:37.091Z,18.82
2017-06-03T01:02:17.562Z,18.81
2017-06-03T01:02:58.059Z,18.95
2017-06-03T01:03:38.552Z,18.87
2017-06-03T01:04:19.038Z,18.81
2017-06-03T01:04:59.541Z,18.84
2017-06-03T01:05:40.025Z,18.76
2017-06-03T01:06:20.518Z,18.72
2017-06-03T01:07:00.997Z,18.65
2017-06-03T01:07:41.513Z,18.58
2017-06-03T01:08:22.020Z,18.65
2017-06-03T01:09:02.526Z,18.67
2017-06-03T01:09:43.040Z,18.67
2017-06-03T01:10:23.544Z,18.69
2017-06-03T01:11:04.033Z,18.73
2017-06-03T01:11:44.529Z,18.78
2017-06-03T01:12:24.998Z,18.75
2017-06-03T01:13:05.505Z,18.8
2017-06-03T01:13:46.010Z,18.88
2017-06-03T01:14:26.476Z,18.85
2017-06-03T01:15:06.971Z,18.76
2017-06-03T01:15:47.461Z,18.78
2017-06-03T01:16:27.992Z,18.72
2017-06-03T01:17:08.440Z,18.76
2017-06-03T01:17:48.917Z,18.69
2017-06-03T01:18:29.421Z,18.66
2017-06-03T01:19:09.943Z,18.6
2017-06-03T01:19:50.443Z,18.62
2017-06-03T01:20:30.913Z,18.67
2017-06-03T01:21:12.152Z,18.69
2017-06-03T01:21:52.659Z,18.73
2017-06-03T01:22:33.134Z,18.7
2017-06-03T01:23:13.682Z,18.82
2017-06-03T01:23:54.115Z,18.75
2017-06-03T01:24:34.597Z,18.76
2017-06-03T01:25:15.090Z,18.58
2017-06-03T01:25:55.585Z,18.57
2017-06-03T01:26:36.062Z,18.65
2017-06-03T01:27:16.561Z,18.52
2017-06-03T01:27:57.063Z,18.52
2017-06-03T01:28:37.542Z,18.45
2017-06-03T01:29:18.041Z,18.47
2017-06-03T01:29:58.538Z,18.41
2017-06-03T01:30:39.042Z,18.41
2017-06-03T01:31:19.540Z,18.42
2017-06-03T01:32:00.040Z,18.36
2017-06-03T01:32:40.537Z,18.32
2017-06-03T01:33:21.030Z,18.32
2017-06-03T01:34:01.523Z,18.36
2017-06-03T01:34:42.017Z,18.36
2017-06-03T01:35:22.496Z,18.33
2017-06-03T01:36:02.992Z,18.37
2017-06-03T01:36:43.487Z,18.37
2017-06-03T01:37:23.978Z,18.42
2017-06-03T01:38:04.473Z,18.39
2017-06-03T01:38:44.971Z,18.44
2017-06-03T01:39:25.490Z,18.48
2017-06-03T01:40:05.979Z,18.44
2017-06-03T01:40:46.475Z,18.42
2017-06-03T01:41:26.972Z,18.47
2017-06-03T01:42:07.467Z,18.5
2017-06-03T01:42:47.946Z,18.52
2017-06-03T01:43:28.448Z,18.45
2017-06-03T01:44:08.943Z,18.47
2017-06-03T01:44:49.439Z,18.44
2017-06-03T01:45:29.930Z,18.44
2017-06-03T01:46:10.431Z,18.42
2017-06-03T01:46:50.912Z,18.33
2017-06-03T01:47:31.391Z,18.33
2017-06-03T01:48:11.878Z,18.27
2017-06-03T01:48:52.375Z,18.21
2017-06-03T01:49:32.879Z,18.2
2017-06-03T01:50:13.351Z,18.17
2017-06-03T01:50:53.842Z,18.12
2017-06-03T01:51:35.048Z,18.26
2017-06-03T01:52:15.538Z,18.18
2017-06-03T01:52:56.031Z,18.25
2017-06-03T01:53:36.512Z,18.26
2017-06-03T01:54:17.007Z,18.21
2017-06-03T01:54:57.498Z,18.36
2017-06-03T01:55:38.012Z,18.35
2017-06-03T01:56:18.488Z,18.35
2017-06-03T01:56:58.982Z,18.32
2017-06-03T01:57:39.492Z,18.29
2017-06-03T01:58:19.959Z,18.08
2017-06-03T01:59:00.458Z,18.14
2017-06-03T01:59:40.960Z,18.02
2017-06-03T02:00:21.443Z,18.1
2017-06-03T02:01:01.931Z,18.03
2017-06-03T02:01:42.427Z,18.07
2017-06-03T02:02:22.921Z,18
2017-06-03T02:03:03.430Z,18.1
2017-06-03T02:03:44.556Z,18.14
2017-06-03T02:04:25.066Z,18.1
2017-06-03T02:05:05.543Z,18.18
2017-06-03T02:05:46.017Z,18.11
2017-06-03T02:06:26.509Z,18.12
2017-06-03T02:07:07.003Z,18.11
2017-06-03T02:07:47.500Z,18.08
2017-06-03T02:08:27.993Z,17.99
2017-06-03T02:09:08.499Z,17.96
2017-06-03T02:09:48.982Z,18.03
2017-06-03T02:10:29.475Z,17.96
2017-06-03T02:11:09.982Z,18.05
2017-06-03T02:11:50.447Z,17.93
2017-06-03T02:12:30.938Z,17.93
2017-06-03T02:13:11.428Z,17.92
2017-06-03T02:13:51.926Z,17.97
2017-06-03T02:14:32.395Z,17.99
2017-06-03T02:15:12.885Z,17.97
2017-06-03T02:15:53.374Z,17.99
2017-06-03T02:16:33.857Z,17.97
2017-06-03T02:17:14.362Z,18.05
2017-06-03T02:17:54.850Z,18.07
2017-06-03T02:18:35.348Z,17.95
2017-06-03T02:19:15.848Z,18.03
2017-06-03T02:19:56.338Z,18.03
2017-06-03T02:20:36.827Z,17.93
2017-06-03T02:21:17.305Z,17.92
2017-06-03T02:21:57.792Z,17.89
2017-06-03T02:22:38.307Z,17.87
2017-06-03T02:23:18.793Z,17.96
2017-06-03T02:23:59.281Z,17.84
2017-06-03T02:24:39.781Z,17.93
2017-06-03T02:25:20.276Z,17.97
2017-06-03T02:26:00.768Z,17.93
2017-06-03T02:26:41.261Z,17.89
2017-06-03T02:27:21.758Z,17.93
2017-06-03T02:28:02.243Z,17.89
2017-06-03T02:28:42.735Z,17.89
2017-06-03T02:29:23.230Z,17.97
2017-06-03T02:30:03.721Z,17.92
2017-06-03T02:30:44.215Z,17.96
2017-06-03T02:31:24.709Z,18.08
2017-06-03T02:32:05.204Z,17.93
2017-06-03T02:32:45.691Z,18
2017-06-03T02:33:26.186Z,17.95
2017-06-03T02:34:06.678Z,17.97
2017-06-03T02:34:47.172Z,17.89
2017-06-03T02:35:27.668Z,17.95
2017-06-03T02:36:08.161Z,17.99
2017-06-03T02:36:48.666Z,18
2017-06-03T02:37:29.178Z,17.97
2017-06-03T02:38:09.671Z,17.95
2017-06-03T02:38:50.118Z,17.86
2017-06-03T02:39:30.609Z,17.87
2017-06-03T02:40:11.112Z,17.9
2017-06-03T02:40:51.597Z,17.86
2017-06-03T02:41:32.089Z,17.75
2017-06-03T02:42:12.585Z,17.74
2017-06-03T02:42:53.074Z,17.7
2017-06-03T02:43:33.571Z,17.7
2017-06-03T02:44:14.074Z,17.71
2017-06-03T02:44:54.558Z,17.7
2017-06-03T02:45:35.049Z,17.75
2017-06-03T02:46:15.545Z,17.81
2017-06-03T02:46:56.028Z,17.86
2017-06-03T02:47:36.529Z,17.99
2017-06-03T02:48:17.021Z,17.9
2017-06-03T02:48:57.507Z,18.05
2017-06-03T02:49:38.001Z,18.08
2017-06-03T02:50:18.508Z,18.07
2017-06-03T02:50:59.001Z,17.95
2017-06-03T02:51:39.495Z,17.95
2017-06-03T02:52:19.992Z,17.89
2017-06-03T02:53:00.463Z,17.92
2017-06-03T02:53:40.960Z,17.95
2017-06-03T02:54:21.451Z,17.93
2017-06-03T02:55:01.946Z,18
2017-06-03T02:55:42.433Z,18.08
2017-06-03T02:56:22.937Z,18.11
2017-06-03T02:57:03.408Z,18
2017-06-03T02:57:43.904Z,18.12
2017-06-03T02:58:24.402Z,18.08
2017-06-03T02:59:04.896Z,18.15
2017-06-03T02:59:45.388Z,18.2
2017-06-03T03:00:25.880Z,18.15
2017-06-03T03:01:06.360Z,18.25
2017-06-03T03:02:43.715Z,18.32
2017-06-03T03:03:24.181Z,18.3
2017-06-03T03:04:04.668Z,18.42
2017-06-03T03:04:45.157Z,18.39
2017-06-03T03:05:25.645Z,18.42
2017-06-03T03:06:06.121Z,18.41
2017-06-03T03:06:46.595Z,18.42
2017-06-03T03:07:27.088Z,18.42
2017-06-03T03:08:07.602Z,18.33
2017-06-03T03:08:48.092Z,18.42
2017-06-03T03:09:28.593Z,18.29
2017-06-03T03:10:09.090Z,18.29
2017-06-03T03:12:21.821Z,18.37
2017-06-03T03:13:02.325Z,18.3
2017-06-03T03:13:42.815Z,18.29
2017-06-03T03:14:23.320Z,18.2
2017-06-03T03:15:03.801Z,18.15
2017-06-03T03:15:44.296Z,18.12
2017-06-03T03:16:24.800Z,18.23
2017-06-03T03:17:05.283Z,18.15
2017-06-03T03:17:45.775Z,18.15
2017-06-03T03:18:26.268Z,18.1
2017-06-03T03:19:06.760Z,18.07
2017-06-03T03:19:47.259Z,18.12
2017-06-03T03:20:27.731Z,18.14
2017-06-03T03:21:08.219Z,18.07
2017-06-03T03:21:48.696Z,18.03
2017-06-03T03:22:29.197Z,18
2017-06-03T03:23:10.610Z,18.05
2017-06-03T03:23:51.121Z,18.07
2017-06-03T03:24:31.590Z,18.08
2017-06-03T03:25:12.079Z,17.95
2017-06-03T03:25:52.571Z,18.07
2017-06-03T03:26:33.064Z,18.07
2017-06-03T03:27:13.561Z,17.95
2017-06-03T03:27:54.047Z,18.02
2017-06-03T03:28:34.543Z,17.93
2017-06-03T03:29:15.041Z,17.97
2017-06-03T03:29:55.523Z,17.9
2017-06-03T03:30:36.019Z,17.82
2017-06-03T03:32:23.472Z,18.02
2017-06-03T03:33:03.965Z,17.96
2017-06-03T03:33:44.454Z,17.92
2017-06-03T03:34:24.951Z,17.97
2017-06-03T03:35:05.441Z,17.89
2017-06-03T03:35:45.933Z,17.92
2017-06-03T03:36:26.423Z,17.95
2017-06-03T03:37:06.918Z,17.95
2017-06-03T03:37:47.405Z,18
2017-06-03T03:38:27.902Z,18
2017-06-03T03:39:08.389Z,17.96
2017-06-03T03:39:48.879Z,17.96
2017-06-03T03:40:29.375Z,17.93
2017-06-03T03:41:09.874Z,17.84
2017-06-03T03:41:50.388Z,17.74
2017-06-03T03:42:30.843Z,17.9
2017-06-03T03:43:11.340Z,17.92
2017-06-03T03:43:51.834Z,17.86
2017-06-03T03:44:32.328Z,17.86
2017-06-03T03:45:12.827Z,17.72
2017-06-03T03:45:53.313Z,17.7
2017-06-03T03:46:33.802Z,17.68
2017-06-03T03:47:14.301Z,17.66
2017-06-03T03:47:54.791Z,17.71
2017-06-03T03:48:35.280Z,17.64
2017-06-03T03:49:15.753Z,17.72
2017-06-03T03:49:56.264Z,17.78
2017-06-03T03:50:36.760Z,17.81
2017-06-03T03:51:17.251Z,17.9
2017-06-03T03:51:57.760Z,17.87
2017-06-03T03:52:38.257Z,17.96
2017-06-03T03:53:18.749Z,18.02
2017-06-03T03:53:59.247Z,17.96
2017-06-03T03:54:39.751Z,18
2017-06-03T03:55:20.239Z,17.95
2017-06-03T03:56:00.732Z,17.92
2017-06-03T03:56:41.223Z,17.81
2017-06-03T03:57:21.717Z,17.86
2017-06-03T03:58:02.215Z,17.82
2017-06-03T03:58:42.706Z,17.81
2017-06-03T03:59:23.195Z,17.84
2017-06-03T04:00:03.679Z,17.77
2017-06-03T04:00:44.177Z,17.64
2017-06-03T04:01:24.665Z,17.71
2017-06-03T04:02:05.164Z,17.62
2017-06-03T04:02:45.662Z,17.63
2017-06-03T04:03:26.148Z,17.51
2017-06-03T04:04:06.645Z,17.62
2017-06-03T04:04:47.131Z,17.64
2017-06-03T04:05:27.624Z,17.72
2017-06-03T04:06:08.118Z,17.79
2017-06-03T04:06:48.626Z,17.92
2017-06-03T04:07:29.102Z,17.92
2017-06-03T04:08:09.593Z,17.9
2017-06-03T04:08:50.092Z,17.9
2017-06-03T04:09:30.587Z,17.9
2017-06-03T04:10:11.071Z,17.95
2017-06-03T04:10:51.563Z,17.99
2017-06-03T04:11:32.060Z,18.08
2017-06-03T04:12:12.551Z,18.07
2017-06-03T04:12:53.046Z,18.11
2017-06-03T04:13:33.533Z,18.1
2017-06-03T04:14:14.031Z,18.11
2017-06-03T04:14:54.498Z,18.03
2017-06-03T04:15:35.008Z,17.97
2017-06-03T04:16:15.525Z,18
2017-06-03T04:16:56.004Z,18.12
2017-06-03T04:17:36.494Z,18.14
2017-06-03T04:18:16.993Z,18.17
2017-06-03T04:18:57.508Z,18.23
2017-06-03T04:19:37.994Z,18.25
2017-06-03T04:20:18.537Z,18.17
2017-06-03T04:20:59.115Z,18.14
2017-06-03T04:21:39.617Z,18.17
2017-06-03T04:22:20.116Z,18.11
2017-06-03T04:23:00.576Z,18.08
2017-06-03T04:23:41.063Z,18.2
2017-06-03T04:24:21.557Z,18.29
2017-06-03T04:25:02.069Z,18.29
2017-06-03T04:25:42.528Z,18.44
2017-06-03T04:26:23.030Z,18.5
2017-06-03T04:27:03.518Z,18.45
2017-06-03T04:27:44.005Z,18.54
2017-06-03T04:28:24.502Z,18.57
2017-06-03T04:29:04.993Z,18.7
2017-06-03T04:29:45.487Z,18.57
2017-06-03T04:30:25.979Z,18.69
2017-06-03T04:31:06.474Z,18.76
2017-06-03T04:31:46.963Z,18.81
2017-06-03T04:32:27.464Z,18.73
2017-06-03T04:33:07.951Z,18.78
2017-06-03T04:33:48.453Z,18.72
2017-06-03T04:34:28.952Z,18.84
2017-06-03T04:35:09.444Z,19
2017-06-03T04:35:49.941Z,19.16
2017-06-03T04:36:30.441Z,19.25
2017-06-03T04:37:10.933Z,19.21
2017-06-03T04:37:51.433Z,19.37
2017-06-03T04:38:31.919Z,19.4
2017-06-03T04:39:12.409Z,19.51
2017-06-03T04:39:52.906Z,19.58
2017-06-03T04:40:33.419Z,19.74
2017-06-03T04:41:13.905Z,19.84
2017-06-03T04:41:54.417Z,19.99
2017-06-03T04:42:34.912Z,20.14
2017-06-03T04:43:15.396Z,20.18
2017-06-03T04:43:55.904Z,20.16
2017-06-03T04:44:36.383Z,20.31
2017-06-03T04:45:16.883Z,20.29
2017-06-03T04:45:57.371Z,20.28
2017-06-03T04:46:37.862Z,20.42
2017-06-03T04:47:18.372Z,20.41
2017-06-03T04:47:58.853Z,20.62
2017-06-03T04:48:39.344Z,20.43
2017-06-03T04:49:19.841Z,20.64
2017-06-03T04:50:00.330Z,20.66
2017-06-03T04:50:40.818Z,20.69
2017-06-03T04:51:21.335Z,20.69
2017-06-03T04:52:01.832Z,20.79
2017-06-03T04:52:42.317Z,20.72
2017-06-03T04:53:22.853Z,20.89
2017-06-03T04:54:03.298Z,20.87
2017-06-03T04:54:43.794Z,20.94
2017-06-03T04:55:24.305Z,21.06
2017-06-03T04:56:04.788Z,21.17
2017-06-03T04:56:45.283Z,21.1
2017-06-03T04:57:25.763Z,21.09
2017-06-03T04:58:06.259Z,21.16
2017-06-03T04:58:46.751Z,21.27
2017-06-03T04:59:27.248Z,21.16
2017-06-03T05:00:07.746Z,21.31
2017-06-03T05:00:48.243Z,21.44
2017-06-03T05:01:28.734Z,21.47
2017-06-03T05:02:09.241Z,21.35
2017-06-03T05:02:49.748Z,21.47
2017-06-03T05:03:30.240Z,21.54
2017-06-03T05:04:10.722Z,21.56
2017-06-03T05:04:51.275Z,21.65
2017-06-03T05:05:31.721Z,21.75
2017-06-03T05:06:12.214Z,21.79
2017-06-03T05:06:52.701Z,21.9
2017-06-03T05:07:33.194Z,21.99
2017-06-03T05:08:13.695Z,22.07
2017-06-03T05:08:54.176Z,22.22
2017-06-03T05:09:34.680Z,22.35
2017-06-03T05:10:15.172Z,22.45
2017-06-03T05:10:56.189Z,22.47
2017-06-03T05:11:36.680Z,22.57
2017-06-03T05:12:17.185Z,22.64
2017-06-03T05:12:57.682Z,22.57
2017-06-03T05:13:38.172Z,22.72
2017-06-03T05:14:18.676Z,22.72
2017-06-03T05:14:59.164Z,22.64
2017-06-03T05:15:39.657Z,22.75
2017-06-03T05:16:20.160Z,22.57
2017-06-03T05:17:00.650Z,22.6
2017-06-03T05:17:41.161Z,22.62
2017-06-03T05:18:21.631Z,22.8
2017-06-03T05:19:02.120Z,22.79
2017-06-03T05:19:42.656Z,22.58
2017-06-03T05:20:23.108Z,22.67
2017-06-03T05:21:03.597Z,22.43
2017-06-03T05:21:44.097Z,22.64
2017-06-03T05:22:24.579Z,22.58
2017-06-03T05:23:05.076Z,22.57
2017-06-03T05:23:45.572Z,22.68
2017-06-03T05:24:26.054Z,22.88
2017-06-03T05:25:06.539Z,22.8
2017-06-03T05:25:47.046Z,22.91
2017-06-03T05:26:27.539Z,23.04
2017-06-03T05:27:08.027Z,23.15
2017-06-03T05:27:48.517Z,23.23
2017-06-03T05:28:29.009Z,23.35
2017-06-03T05:29:09.495Z,23.42
2017-06-03T05:29:49.991Z,23.57
2017-06-03T05:30:30.481Z,23.57
2017-06-03T05:31:10.978Z,23.85
2017-06-03T05:31:51.478Z,23.85
2017-06-03T05:32:31.961Z,23.76
2017-06-03T05:33:12.450Z,23.78
2017-06-03T05:33:52.957Z,23.84
2017-06-03T05:34:33.444Z,24
2017-06-03T05:35:13.927Z,24.05
2017-06-03T05:35:54.414Z,24.22
2017-06-03T05:36:34.931Z,24.21
2017-06-03T05:37:15.408Z,24.3
2017-06-03T05:37:55.914Z,24.34
2017-06-03T05:38:36.406Z,24.2
2017-06-03T05:39:16.897Z,24.21
2017-06-03T05:39:57.410Z,24.39
2017-06-03T05:40:37.910Z,24.49
2017-06-03T05:41:18.407Z,24.4
2017-06-03T05:41:58.882Z,24.64
2017-06-03T05:43:36.270Z,25.03
2017-06-03T05:44:16.680Z,24.98
2017-06-03T05:44:57.186Z,24.77
2017-06-03T05:45:37.676Z,24.87
2017-06-03T05:46:18.172Z,25
2017-06-03T05:46:58.660Z,25.02
2017-06-03T05:47:39.150Z,25.15
2017-06-03T05:48:19.674Z,25.27
2017-06-03T05:49:00.210Z,25.47
2017-06-03T05:49:40.652Z,25.46
2017-06-03T05:50:21.137Z,25.24
2017-06-03T05:51:01.636Z,25.17
2017-06-03T05:51:42.130Z,25.2
2017-06-03T05:52:22.635Z,24.99
2017-06-03T05:53:03.325Z,25.02
2017-06-03T05:53:43.842Z,25.46
2017-06-03T05:54:24.320Z,25.54
2017-06-03T05:55:04.889Z,25.76
2017-06-03T05:55:45.314Z,26.07
2017-06-03T05:56:25.926Z,26.06
2017-06-03T05:57:06.417Z,26.21
2017-06-03T05:57:46.904Z,26.47
2017-06-03T05:58:27.400Z,26.6
2017-06-03T05:59:07.898Z,26.88
2017-06-03T05:59:48.398Z,26.76
2017-06-03T06:00:28.880Z,26.87
2017-06-03T06:01:09.419Z,26.57
2017-06-03T06:01:49.914Z,26.4
2017-06-03T06:02:30.393Z,26.55
2017-06-03T06:03:10.904Z,26.3
2017-06-03T06:03:51.408Z,26.35
2017-06-03T06:04:31.957Z,26.28
2017-06-03T06:05:12.398Z,25.91
2017-06-03T06:05:52.889Z,25.83
2017-06-03T06:06:33.362Z,25.99
2017-06-03T06:07:13.882Z,25.91
2017-06-03T06:07:54.340Z,25.92
2017-06-03T06:08:34.865Z,25.69
2017-06-03T06:09:15.353Z,25.9
2017-06-03T06:09:55.876Z,25.88
2017-06-03T06:10:36.525Z,26.06
2017-06-03T06:11:17.050Z,25.91
2017-06-03T06:11:57.548Z,26.33
2017-06-03T06:12:38.068Z,26.47
2017-06-03T06:13:18.557Z,26.4
2017-06-03T06:13:59.055Z,26.43
2017-06-03T06:14:39.819Z,26.81
2017-06-03T06:15:20.605Z,27.12
2017-06-03T06:16:01.198Z,27.25
2017-06-03T06:16:41.696Z,27.39
2017-06-03T06:17:22.175Z,27.43
2017-06-03T06:18:02.677Z,27.72
2017-06-03T06:18:43.174Z,27.87
2017-06-03T06:19:23.670Z,28.04
2017-06-03T06:20:04.160Z,28.25
2017-06-03T06:20:44.758Z,28.34
2017-06-03T06:21:25.241Z,28.51
2017-06-03T06:22:05.724Z,28.74
2017-06-03T06:22:46.227Z,28.83
2017-06-03T06:23:26.745Z,28.98
2017-06-03T06:24:07.239Z,28.98
2017-06-03T06:24:47.734Z,29.23
2017-06-03T06:25:28.233Z,29.27
2017-06-03T06:26:08.727Z,29
2017-06-03T06:26:49.211Z,29.09
2017-06-03T06:27:29.707Z,29.02
2017-06-03T06:28:10.198Z,29.16
2017-06-03T06:28:50.684Z,29.43
2017-06-03T06:29:31.160Z,29.26
2017-06-03T06:30:11.644Z,29.46
2017-06-03T06:30:52.138Z,29.67
2017-06-03T06:31:32.648Z,29.19
2017-06-03T06:32:13.135Z,29.45
2017-06-03T06:32:53.984Z,29.74
2017-06-03T06:33:34.570Z,29.6
2017-06-03T06:34:15.176Z,29.82
2017-06-03T06:34:55.649Z,30
2017-06-03T06:35:36.163Z,29.68
2017-06-03T06:36:16.849Z,29.95
2017-06-03T06:36:57.353Z,30.1
2017-06-03T06:37:37.857Z,30.11
2017-06-03T06:38:18.491Z,29.67
2017-06-03T06:38:58.996Z,29.61
2017-06-03T06:39:39.524Z,29.52
2017-06-03T06:40:20.009Z,29.7
2017-06-03T06:41:00.513Z,29.89
2017-06-03T06:41:41.074Z,29.85
2017-06-03T06:42:21.557Z,29.97
2017-06-03T06:43:02.048Z,29.73
2017-06-03T06:43:42.555Z,29.98
2017-06-03T06:44:23.054Z,30.2
2017-06-03T06:45:03.562Z,29.31
2017-06-03T06:45:44.054Z,29.67
2017-06-03T06:46:24.542Z,29.65
2017-06-03T06:47:05.200Z,30.11
2017-06-03T06:47:45.749Z,30.34
2017-06-03T06:48:26.244Z,30.45
2017-06-03T06:49:06.739Z,30.31
2017-06-03T06:49:47.198Z,30.32
2017-06-03T06:50:27.711Z,30.39
2017-06-03T06:51:08.204Z,30.17
2017-06-03T06:51:48.716Z,29.74
2017-06-03T06:52:29.217Z,29.67
2017-06-03T06:54:21.836Z,29.57
2017-06-03T06:55:02.254Z,29.26
2017-06-03T06:55:42.767Z,29.43
2017-06-03T06:56:23.252Z,29.02
2017-06-03T06:57:03.769Z,29.05
2017-06-03T06:57:44.259Z,29.24
2017-06-03T06:59:36.870Z,29.19
2017-06-03T07:00:17.320Z,29.31
2017-06-03T07:00:57.782Z,29.05
2017-06-03T07:01:38.283Z,29.26
2017-06-03T07:02:18.781Z,29.23
2017-06-03T07:02:59.276Z,29.33
2017-06-03T07:03:39.743Z,28.98
2017-06-03T07:04:20.297Z,29.19
2017-06-03T07:05:00.835Z,29.36
2017-06-03T07:05:41.319Z,29.36
2017-06-03T07:06:21.837Z,29.65
2017-06-03T07:07:02.331Z,30.1
2017-06-03T07:07:42.821Z,30.37
2017-06-03T07:08:23.310Z,30.17
2017-06-03T07:09:04.367Z,30.23
2017-06-03T07:09:45.480Z,30.62
2017-06-03T07:10:26.005Z,30.54
2017-06-03T07:11:06.474Z,30.05
2017-06-03T07:11:46.979Z,29.73
2017-06-03T07:12:27.453Z,29.24
2017-06-03T07:13:07.947Z,29.33
2017-06-03T07:13:48.422Z,29.8
2017-06-03T07:14:28.970Z,29.87
2017-06-03T07:15:09.442Z,30.19
2017-06-03T07:15:49.927Z,30.02
2017-06-03T07:16:30.434Z,30.16
2017-06-03T07:18:17.946Z,29.73
2017-06-03T07:18:58.390Z,29.41
2017-06-03T07:19:38.908Z,29.67
2017-06-03T07:20:19.449Z,29.95
2017-06-03T07:20:59.904Z,30.22
2017-06-03T07:21:40.361Z,30.02
2017-06-03T07:22:20.841Z,29.65
2017-06-03T07:23:01.321Z,29.73
2017-06-03T07:23:41.779Z,29.21
2017-06-03T07:24:22.343Z,29.24
2017-06-03T07:25:02.908Z,29.11
2017-06-03T07:25:43.359Z,29.05
2017-06-03T07:26:23.862Z,29.08
2017-06-03T07:27:04.378Z,28.9
2017-06-03T07:27:44.878Z,29.05
2017-06-03T07:28:25.388Z,28.92
2017-06-03T07:29:05.886Z,28.93
2017-06-03T07:29:46.423Z,29.28
2017-06-03T07:30:26.929Z,29.46
2017-06-03T07:31:07.425Z,29.68
2017-06-03T07:31:47.913Z,30.05
2017-06-03T07:32:28.454Z,30.05
2017-06-03T07:33:08.855Z,30.04
2017-06-03T07:33:49.357Z,30.35
2017-06-03T07:34:29.819Z,30.67
2017-06-03T07:35:10.316Z,30.91
2017-06-03T07:35:50.960Z,31.47
2017-06-03T07:37:48.685Z,31.91
2017-06-03T07:38:29.085Z,32.01
2017-06-03T07:39:09.581Z,31.84
2017-06-03T07:39:50.066Z,31.57
2017-06-03T07:40:30.560Z,30.84
2017-06-03T07:41:11.061Z,30.97
2017-06-03T07:41:51.544Z,31.16
2017-06-03T07:42:32.035Z,31.36
2017-06-03T07:43:12.536Z,31.78
2017-06-03T07:43:53.037Z,32.01
2017-06-03T07:44:33.558Z,32.06
2017-06-03T07:45:14.037Z,32.22
2017-06-03T07:45:54.533Z,32.6
2017-06-03T07:46:35.030Z,32.94
2017-06-03T07:47:15.535Z,32.97
2017-06-03T07:47:56.011Z,33.31
2017-06-03T07:48:36.510Z,33.42
2017-06-03T07:49:17.002Z,33.68
2017-06-03T07:49:57.497Z,34
2017-06-03T07:50:38.001Z,34.06
2017-06-03T07:51:18.547Z,34.35
2017-06-03T07:51:59.006Z,34.61
2017-06-03T07:52:39.483Z,34.72
2017-06-03T07:53:19.981Z,34.78
2017-06-03T07:54:00.461Z,35.11
2017-06-03T07:54:40.991Z,34.88
2017-06-03T07:55:21.459Z,34.5
2017-06-03T07:56:01.934Z,34.69
2017-06-03T07:57:39.324Z,35.58
2017-06-03T07:58:19.758Z,35.4
2017-06-03T07:59:00.268Z,35.04
2017-06-03T07:59:40.767Z,34.35
2017-06-03T08:00:21.261Z,34.43
2017-06-03T08:01:01.760Z,33.95
2017-06-03T08:01:42.241Z,34.24
2017-06-03T08:02:22.742Z,34.77
2017-06-03T08:03:03.232Z,34.84
2017-06-03T08:03:43.717Z,34.59
2017-06-03T08:04:24.217Z,34.99
2017-06-03T08:05:04.706Z,34.75
2017-06-03T08:05:45.198Z,34.88
2017-06-03T08:06:26.342Z,35.1
2017-06-03T08:07:06.837Z,34.97
2017-06-03T08:07:47.338Z,34.85
2017-06-03T08:08:27.829Z,34.3
2017-06-03T08:09:08.322Z,34.46
2017-06-03T08:10:55.825Z,34.13
2017-06-03T08:11:36.270Z,34.52
2017-06-03T08:12:16.757Z,34.64
2017-06-03T08:12:57.262Z,34.52
2017-06-03T08:13:37.759Z,34.78
2017-06-03T08:14:18.250Z,34.52
2017-06-03T08:14:58.748Z,33.94
2017-06-03T08:15:39.287Z,33.93
2017-06-03T08:16:19.741Z,34.09
2017-06-03T08:17:00.237Z,33.39
2017-06-03T08:17:40.763Z,33.19
2017-06-03T08:18:21.243Z,33.01
2017-06-03T08:19:01.785Z,33.01
2017-06-03T08:19:42.226Z,33.34
2017-06-03T08:20:22.717Z,32.94
2017-06-03T08:21:03.211Z,32.82
2017-06-03T08:21:43.761Z,32.96
2017-06-03T08:22:24.251Z,33
2017-06-03T08:23:04.754Z,33.37
2017-06-03T08:23:45.249Z,33.68
2017-06-03T08:24:25.746Z,33.78
2017-06-03T08:25:06.237Z,33.97
2017-06-03T08:25:46.745Z,34.08
2017-06-03T08:26:27.213Z,33.98
2017-06-03T08:27:07.731Z,34.44
2017-06-03T08:27:48.583Z,33.78
2017-06-03T08:28:29.091Z,34.52
2017-06-03T08:29:09.586Z,34.88
2017-06-03T08:29:50.086Z,35.7
2017-06-03T08:30:30.590Z,36.08
2017-06-03T08:31:11.094Z,36
2017-06-03T08:31:51.594Z,36.39
2017-06-03T08:32:32.090Z,36.6
2017-06-03T08:33:12.595Z,36.5
2017-06-03T08:33:53.091Z,36.37
2017-06-03T08:34:33.572Z,36.84
2017-06-03T08:35:14.068Z,36.99
2017-06-03T08:35:54.578Z,37.07
2017-06-03T08:36:35.076Z,36.65
2017-06-03T08:37:15.565Z,36.37
2017-06-03T08:37:56.065Z,36.5
2017-06-03T08:38:36.670Z,36.72
2017-06-03T08:39:17.162Z,36.87
2017-06-03T08:39:57.701Z,37.43
2017-06-03T08:40:38.217Z,37.13
2017-06-03T08:41:18.685Z,35.71
2017-06-03T08:41:59.250Z,35.22
2017-06-03T08:42:39.745Z,35.66
2017-06-03T08:43:20.251Z,34.78
2017-06-03T08:44:00.736Z,34.15
2017-06-03T08:44:41.231Z,34.66
2017-06-03T08:45:21.724Z,35.65
2017-06-03T08:46:02.216Z,36.27
2017-06-03T08:46:42.699Z,36.16
2017-06-03T08:47:23.197Z,36.19
2017-06-03T08:48:03.722Z,36.34
2017-06-03T08:48:44.212Z,36.76
2017-06-03T08:49:24.708Z,36.59
2017-06-03T08:50:05.205Z,36.27
2017-06-03T08:50:45.697Z,36.23
2017-06-03T08:51:26.194Z,35.77
2017-06-03T08:52:06.693Z,35.38
2017-06-03T08:52:47.192Z,36
2017-06-03T08:53:27.682Z,36.38
2017-06-03T08:54:08.194Z,36.05
2017-06-03T08:54:48.687Z,36.49
2017-06-03T08:55:29.197Z,37.06
2017-06-03T08:56:09.702Z,37.56
2017-06-03T08:56:50.191Z,37.1